sensor_id;sensor_type;location;lat;lon;timestamp;P1;durP1;ratioP1;P2;durP2;ratioP2
75928;SDS011;64606;44.062;2.986;2023-02-21T00:02:25;12.35;;;6.65;;
75928;SDS011;64606;44.062;2.986;2023-02-21T00:05:09;13.40;;;6.97;;
75928;SDS011;64606;44.062;2.986;2023-02-21T00:07:54;10.50;;;6.03;;
75928;SDS011;64606;44.062;2.986;2023-02-21T00:10:38;12.10;;;6.40;;
75928;SDS011;64606;44.062;2.986;2023-02-21T00:13:23;12.60;;;7.30;;
75928;SDS011;64606;44.062;2.986;2023-02-21T00:16:08;12.52;;;5.80;;
75928;SDS011;64606;44.062;2.986;2023-02-21T00:18:52;11.32;;;6.63;;
75928;SDS011;64606;44.062;2.986;2023-02-21T00:21:37;11.15;;;6.18;;
75928;SDS011;64606;44.062;2.986;2023-02-21T00:24:21;11.43;;;5.55;;
75928;SDS011;64606;44.062;2.986;2023-02-21T00:27:06;13.98;;;6.20;;
75928;SDS011;64606;44.062;2.986;2023-02-21T00:29:51;12.18;;;5.50;;
75928;SDS011;64606;44.062;2.986;2023-02-21T00:32:35;11.90;;;6.30;;
75928;SDS011;64606;44.062;2.986;2023-02-21T00:35:20;13.25;;;6.88;;
75928;SDS011;64606;44.062;2.986;2023-02-21T00:38:04;13.88;;;5.97;;
75928;SDS011;64606;44.062;2.986;2023-02-21T00:40:49;15.07;;;6.20;;
75928;SDS011;64606;44.062;2.986;2023-02-21T00:43:34;14.93;;;6.60;;
75928;SDS011;64606;44.062;2.986;2023-02-21T00:46:19;16.45;;;6.70;;
75928;SDS011;64606;44.062;2.986;2023-02-21T00:49:04;10.75;;;5.90;;
75928;SDS011;64606;44.062;2.986;2023-02-21T00:51:49;11.40;;;6.38;;
75928;SDS011;64606;44.062;2.986;2023-02-21T00:54:35;12.43;;;5.78;;
75928;SDS011;64606;44.062;2.986;2023-02-21T00:57:20;11.50;;;5.37;;
75928;SDS011;64606;44.062;2.986;2023-02-21T01:00:05;11.95;;;6.18;;
75928;SDS011;64606;44.062;2.986;2023-02-21T01:02:50;12.20;;;5.57;;
75928;SDS011;64606;44.062;2.986;2023-02-21T01:05:35;11.38;;;5.88;;
75928;SDS011;64606;44.062;2.986;2023-02-21T01:08:20;14.27;;;6.55;;
75928;SDS011;64606;44.062;2.986;2023-02-21T01:11:04;12.70;;;6.78;;
75928;SDS011;64606;44.062;2.986;2023-02-21T01:13:49;13.10;;;6.22;;
75928;SDS011;64606;44.062;2.986;2023-02-21T01:16:34;13.23;;;6.20;;
75928;SDS011;64606;44.062;2.986;2023-02-21T01:19:18;12.45;;;6.15;;
75928;SDS011;64606;44.062;2.986;2023-02-21T01:22:03;13.68;;;6.70;;
75928;SDS011;64606;44.062;2.986;2023-02-21T01:24:48;14.52;;;7.05;;
75928;SDS011;64606;44.062;2.986;2023-02-21T01:27:33;14.20;;;6.85;;
75928;SDS011;64606;44.062;2.986;2023-02-21T01:30:18;11.18;;;5.95;;
75928;SDS011;64606;44.062;2.986;2023-02-21T01:33:03;12.30;;;6.00;;
75928;SDS011;64606;44.062;2.986;2023-02-21T01:35:48;12.20;;;7.13;;
75928;SDS011;64606;44.062;2.986;2023-02-21T01:38:33;12.60;;;6.70;;
75928;SDS011;64606;44.062;2.986;2023-02-21T01:41:18;13.23;;;6.50;;
75928;SDS011;64606;44.062;2.986;2023-02-21T01:44:26;13.75;;;6.53;;
75928;SDS011;64606;44.062;2.986;2023-02-21T01:47:09;11.20;;;6.10;;
75928;SDS011;64606;44.062;2.986;2023-02-21T01:49:54;10.95;;;5.25;;
75928;SDS011;64606;44.062;2.986;2023-02-21T01:52:39;10.75;;;5.50;;
75928;SDS011;64606;44.062;2.986;2023-02-21T01:55:24;8.75;;;4.50;;
75928;SDS011;64606;44.062;2.986;2023-02-21T01:58:09;11.02;;;6.05;;
75928;SDS011;64606;44.062;2.986;2023-02-21T02:00:54;13.77;;;6.60;;
75928;SDS011;64606;44.062;2.986;2023-02-21T02:03:39;11.68;;;6.60;;
75928;SDS011;64606;44.062;2.986;2023-02-21T02:09:28;13.38;;;6.07;;
75928;SDS011;64606;44.062;2.986;2023-02-21T02:14:50;12.23;;;6.38;;
75928;SDS011;64606;44.062;2.986;2023-02-21T02:17:35;11.52;;;6.47;;
75928;SDS011;64606;44.062;2.986;2023-02-21T02:25:18;11.32;;;6.43;;
75928;SDS011;64606;44.062;2.986;2023-02-21T02:27:52;15.30;;;6.70;;
75928;SDS011;64606;44.062;2.986;2023-02-21T02:35:32;9.63;;;5.68;;
75928;SDS011;64606;44.062;2.986;2023-02-21T02:43:31;11.57;;;6.05;;
75928;SDS011;64606;44.062;2.986;2023-02-21T02:45:53;11.65;;;7.03;;
75928;SDS011;64606;44.062;2.986;2023-02-21T02:48:22;16.73;;;7.40;;
75928;SDS011;64606;44.062;2.986;2023-02-21T02:50:52;11.70;;;6.07;;
75928;SDS011;64606;44.062;2.986;2023-02-21T02:53:20;10.45;;;6.20;;
75928;SDS011;64606;44.062;2.986;2023-02-21T02:58:19;13.10;;;6.20;;
75928;SDS011;64606;44.062;2.986;2023-02-21T03:00:48;11.07;;;5.90;;
75928;SDS011;64606;44.062;2.986;2023-02-21T03:11:19;17.03;;;7.87;;
75928;SDS011;64606;44.062;2.986;2023-02-21T03:13:53;11.15;;;6.63;;
75928;SDS011;64606;44.062;2.986;2023-02-21T03:18:49;12.55;;;6.55;;
75928;SDS011;64606;44.062;2.986;2023-02-21T03:21:38;12.93;;;6.57;;
75928;SDS011;64606;44.062;2.986;2023-02-21T03:24:02;12.07;;;6.68;;
75928;SDS011;64606;44.062;2.986;2023-02-21T03:26:30;13.07;;;6.40;;
75928;SDS011;64606;44.062;2.986;2023-02-21T03:28:56;11.90;;;6.13;;
75928;SDS011;64606;44.062;2.986;2023-02-21T03:31:24;11.82;;;6.20;;
75928;SDS011;64606;44.062;2.986;2023-02-21T03:33:51;11.18;;;6.85;;
75928;SDS011;64606;44.062;2.986;2023-02-21T03:36:18;13.85;;;6.53;;
75928;SDS011;64606;44.062;2.986;2023-02-21T03:38:45;16.45;;;6.47;;
75928;SDS011;64606;44.062;2.986;2023-02-21T03:41:11;14.75;;;6.57;;
75928;SDS011;64606;44.062;2.986;2023-02-21T03:43:37;12.27;;;6.63;;
75928;SDS011;64606;44.062;2.986;2023-02-21T03:46:04;13.55;;;6.68;;
75928;SDS011;64606;44.062;2.986;2023-02-21T03:48:30;13.88;;;7.47;;
75928;SDS011;64606;44.062;2.986;2023-02-21T03:50:56;12.50;;;6.95;;
75928;SDS011;64606;44.062;2.986;2023-02-21T03:53:22;14.43;;;7.00;;
75928;SDS011;64606;44.062;2.986;2023-02-21T03:55:48;13.55;;;6.75;;
75928;SDS011;64606;44.062;2.986;2023-02-21T03:58:14;14.77;;;7.00;;
75928;SDS011;64606;44.062;2.986;2023-02-21T04:00:40;12.57;;;6.95;;
75928;SDS011;64606;44.062;2.986;2023-02-21T04:03:06;13.63;;;6.82;;
75928;SDS011;64606;44.062;2.986;2023-02-21T04:05:32;12.27;;;6.60;;
75928;SDS011;64606;44.062;2.986;2023-02-21T04:07:59;14.32;;;6.72;;
75928;SDS011;64606;44.062;2.986;2023-02-21T04:10:25;12.20;;;6.28;;
75928;SDS011;64606;44.062;2.986;2023-02-21T04:12:51;11.75;;;6.55;;
75928;SDS011;64606;44.062;2.986;2023-02-21T04:15:17;13.55;;;7.15;;
75928;SDS011;64606;44.062;2.986;2023-02-21T04:17:43;12.05;;;6.38;;
75928;SDS011;64606;44.062;2.986;2023-02-21T04:20:09;14.82;;;7.22;;
75928;SDS011;64606;44.062;2.986;2023-02-21T04:22:35;13.00;;;6.72;;
75928;SDS011;64606;44.062;2.986;2023-02-21T04:25:02;12.63;;;6.35;;
75928;SDS011;64606;44.062;2.986;2023-02-21T04:27:28;15.48;;;7.20;;
75928;SDS011;64606;44.062;2.986;2023-02-21T04:29:54;17.35;;;8.23;;
75928;SDS011;64606;44.062;2.986;2023-02-21T04:32:20;12.60;;;6.50;;
75928;SDS011;64606;44.062;2.986;2023-02-21T04:34:46;11.82;;;6.68;;
75928;SDS011;64606;44.062;2.986;2023-02-21T04:37:12;13.60;;;7.60;;
75928;SDS011;64606;44.062;2.986;2023-02-21T04:39:39;18.20;;;7.65;;
75928;SDS011;64606;44.062;2.986;2023-02-21T04:42:05;14.95;;;7.28;;
75928;SDS011;64606;44.062;2.986;2023-02-21T04:44:31;24.08;;;10.98;;
75928;SDS011;64606;44.062;2.986;2023-02-21T04:46:57;19.88;;;9.40;;
75928;SDS011;64606;44.062;2.986;2023-02-21T04:49:24;15.80;;;8.80;;
75928;SDS011;64606;44.062;2.986;2023-02-21T04:51:51;16.20;;;7.60;;
75928;SDS011;64606;44.062;2.986;2023-02-21T04:54:18;13.82;;;6.85;;
75928;SDS011;64606;44.062;2.986;2023-02-21T04:56:44;13.00;;;7.60;;
75928;SDS011;64606;44.062;2.986;2023-02-21T04:59:10;13.45;;;6.65;;
75928;SDS011;64606;44.062;2.986;2023-02-21T05:01:36;16.85;;;7.50;;
75928;SDS011;64606;44.062;2.986;2023-02-21T05:04:03;12.20;;;6.78;;
75928;SDS011;64606;44.062;2.986;2023-02-21T05:06:29;12.45;;;6.38;;
75928;SDS011;64606;44.062;2.986;2023-02-21T05:08:56;11.18;;;6.80;;
75928;SDS011;64606;44.062;2.986;2023-02-21T05:11:23;15.93;;;6.65;;
75928;SDS011;64606;44.062;2.986;2023-02-21T05:13:49;11.55;;;6.68;;
75928;SDS011;64606;44.062;2.986;2023-02-21T05:16:16;11.40;;;6.70;;
75928;SDS011;64606;44.062;2.986;2023-02-21T05:18:43;13.48;;;6.82;;
75928;SDS011;64606;44.062;2.986;2023-02-21T05:21:10;15.10;;;6.82;;
75928;SDS011;64606;44.062;2.986;2023-02-21T05:23:37;13.15;;;7.30;;
75928;SDS011;64606;44.062;2.986;2023-02-21T05:26:05;13.05;;;6.72;;
75928;SDS011;64606;44.062;2.986;2023-02-21T05:28:32;14.48;;;7.13;;
75928;SDS011;64606;44.062;2.986;2023-02-21T05:30:58;17.55;;;7.70;;
75928;SDS011;64606;44.062;2.986;2023-02-21T05:33:24;22.25;;;10.82;;
75928;SDS011;64606;44.062;2.986;2023-02-21T05:35:51;65.80;;;29.70;;
75928;SDS011;64606;44.062;2.986;2023-02-21T05:38:18;144.77;;;60.90;;
75928;SDS011;64606;44.062;2.986;2023-02-21T05:40:44;140.68;;;63.42;;
75928;SDS011;64606;44.062;2.986;2023-02-21T05:43:10;119.50;;;61.72;;
75928;SDS011;64606;44.062;2.986;2023-02-21T05:45:36;91.00;;;47.33;;
75928;SDS011;64606;44.062;2.986;2023-02-21T05:48:02;45.92;;;23.58;;
75928;SDS011;64606;44.062;2.986;2023-02-21T05:50:29;40.67;;;22.45;;
75928;SDS011;64606;44.062;2.986;2023-02-21T05:52:55;23.00;;;12.45;;
75928;SDS011;64606;44.062;2.986;2023-02-21T05:55:21;19.52;;;10.65;;
75928;SDS011;64606;44.062;2.986;2023-02-21T05:57:48;30.20;;;16.63;;
75928;SDS011;64606;44.062;2.986;2023-02-21T06:00:17;120.13;;;57.83;;
75928;SDS011;64606;44.062;2.986;2023-02-21T06:02:44;61.03;;;29.98;;
75928;SDS011;64606;44.062;2.986;2023-02-21T06:05:10;97.20;;;42.65;;
75928;SDS011;64606;44.062;2.986;2023-02-21T06:07:36;87.38;;;38.60;;
75928;SDS011;64606;44.062;2.986;2023-02-21T06:10:03;116.28;;;42.88;;
75928;SDS011;64606;44.062;2.986;2023-02-21T06:12:30;186.18;;;80.13;;
75928;SDS011;64606;44.062;2.986;2023-02-21T06:14:56;118.25;;;49.20;;
75928;SDS011;64606;44.062;2.986;2023-02-21T06:17:22;172.13;;;79.70;;
75928;SDS011;64606;44.062;2.986;2023-02-21T06:19:48;62.20;;;29.35;;
75928;SDS011;64606;44.062;2.986;2023-02-21T06:22:14;45.42;;;18.73;;
75928;SDS011;64606;44.062;2.986;2023-02-21T06:24:41;63.05;;;26.00;;
75928;SDS011;64606;44.062;2.986;2023-02-21T06:27:07;89.97;;;39.42;;
75928;SDS011;64606;44.062;2.986;2023-02-21T06:29:33;267.30;;;120.63;;
75928;SDS011;64606;44.062;2.986;2023-02-21T06:32:00;45.88;;;21.38;;
75928;SDS011;64606;44.062;2.986;2023-02-21T06:34:26;204.50;;;90.63;;
75928;SDS011;64606;44.062;2.986;2023-02-21T06:36:53;67.38;;;29.00;;
75928;SDS011;64606;44.062;2.986;2023-02-21T06:39:20;46.95;;;23.80;;
75928;SDS011;64606;44.062;2.986;2023-02-21T06:41:47;65.20;;;32.83;;
75928;SDS011;64606;44.062;2.986;2023-02-21T06:44:14;47.85;;;26.27;;
75928;SDS011;64606;44.062;2.986;2023-02-21T06:46:40;34.38;;;17.88;;
75928;SDS011;64606;44.062;2.986;2023-02-21T06:49:07;90.88;;;44.88;;
75928;SDS011;64606;44.062;2.986;2023-02-21T06:51:34;27.88;;;14.68;;
75928;SDS011;64606;44.062;2.986;2023-02-21T06:54:00;30.13;;;14.32;;
75928;SDS011;64606;44.062;2.986;2023-02-21T06:56:26;27.50;;;11.40;;
75928;SDS011;64606;44.062;2.986;2023-02-21T06:58:52;20.40;;;8.50;;
75928;SDS011;64606;44.062;2.986;2023-02-21T07:01:19;16.95;;;9.68;;
75928;SDS011;64606;44.062;2.986;2023-02-21T07:03:47;23.10;;;12.88;;
75928;SDS011;64606;44.062;2.986;2023-02-21T07:06:13;29.38;;;13.15;;
75928;SDS011;64606;44.062;2.986;2023-02-21T07:08:40;21.48;;;7.95;;
75928;SDS011;64606;44.062;2.986;2023-02-21T07:11:06;16.45;;;8.73;;
75928;SDS011;64606;44.062;2.986;2023-02-21T07:13:33;25.90;;;13.48;;
75928;SDS011;64606;44.062;2.986;2023-02-21T07:15:59;76.03;;;36.22;;
75928;SDS011;64606;44.062;2.986;2023-02-21T07:18:25;22.67;;;10.38;;
75928;SDS011;64606;44.062;2.986;2023-02-21T07:20:52;33.65;;;14.77;;
75928;SDS011;64606;44.062;2.986;2023-02-21T07:23:18;28.10;;;14.20;;
75928;SDS011;64606;44.062;2.986;2023-02-21T07:25:44;46.45;;;22.15;;
75928;SDS011;64606;44.062;2.986;2023-02-21T07:28:10;24.05;;;11.43;;
75928;SDS011;64606;44.062;2.986;2023-02-21T07:30:36;20.42;;;10.00;;
75928;SDS011;64606;44.062;2.986;2023-02-21T07:33:03;58.25;;;22.80;;
75928;SDS011;64606;44.062;2.986;2023-02-21T07:35:29;38.92;;;15.88;;
75928;SDS011;64606;44.062;2.986;2023-02-21T07:37:55;29.55;;;12.30;;
75928;SDS011;64606;44.062;2.986;2023-02-21T07:40:21;33.25;;;13.50;;
75928;SDS011;64606;44.062;2.986;2023-02-21T07:42:47;32.85;;;12.88;;
75928;SDS011;64606;44.062;2.986;2023-02-21T07:45:14;19.42;;;8.80;;
75928;SDS011;64606;44.062;2.986;2023-02-21T07:47:40;10.50;;;5.57;;
75928;SDS011;64606;44.062;2.986;2023-02-21T07:50:08;11.18;;;5.10;;
75928;SDS011;64606;44.062;2.986;2023-02-21T07:52:34;9.13;;;4.90;;
75928;SDS011;64606;44.062;2.986;2023-02-21T07:55:00;14.23;;;6.07;;
75928;SDS011;64606;44.062;2.986;2023-02-21T07:57:27;9.25;;;4.60;;
75928;SDS011;64606;44.062;2.986;2023-02-21T07:59:53;10.57;;;4.80;;
75928;SDS011;64606;44.062;2.986;2023-02-21T08:02:19;9.93;;;5.22;;
75928;SDS011;64606;44.062;2.986;2023-02-21T08:04:48;7.68;;;4.55;;
75928;SDS011;64606;44.062;2.986;2023-02-21T08:07:14;8.57;;;4.97;;
75928;SDS011;64606;44.062;2.986;2023-02-21T08:09:41;8.95;;;4.63;;
75928;SDS011;64606;44.062;2.986;2023-02-21T08:12:07;9.45;;;4.80;;
75928;SDS011;64606;44.062;2.986;2023-02-21T08:14:33;11.02;;;4.80;;
75928;SDS011;64606;44.062;2.986;2023-02-21T08:16:59;9.80;;;4.65;;
75928;SDS011;64606;44.062;2.986;2023-02-21T08:19:25;8.30;;;4.47;;
75928;SDS011;64606;44.062;2.986;2023-02-21T08:21:51;9.98;;;4.70;;
75928;SDS011;64606;44.062;2.986;2023-02-21T08:24:17;11.35;;;4.95;;
75928;SDS011;64606;44.062;2.986;2023-02-21T08:26:44;10.05;;;4.57;;
75928;SDS011;64606;44.062;2.986;2023-02-21T08:29:11;14.57;;;5.10;;
75928;SDS011;64606;44.062;2.986;2023-02-21T08:31:38;8.25;;;4.60;;
75928;SDS011;64606;44.062;2.986;2023-02-21T08:34:05;11.27;;;5.65;;
75928;SDS011;64606;44.062;2.986;2023-02-21T08:36:32;10.48;;;5.40;;
75928;SDS011;64606;44.062;2.986;2023-02-21T08:38:58;10.57;;;6.00;;
75928;SDS011;64606;44.062;2.986;2023-02-21T08:41:24;9.57;;;5.97;;
75928;SDS011;64606;44.062;2.986;2023-02-21T08:43:50;11.38;;;5.28;;
75928;SDS011;64606;44.062;2.986;2023-02-21T08:46:17;8.77;;;5.40;;
75928;SDS011;64606;44.062;2.986;2023-02-21T08:48:43;10.95;;;5.80;;
75928;SDS011;64606;44.062;2.986;2023-02-21T08:51:09;10.57;;;5.43;;
75928;SDS011;64606;44.062;2.986;2023-02-21T08:53:35;13.55;;;6.30;;
75928;SDS011;64606;44.062;2.986;2023-02-21T08:56:01;9.18;;;5.38;;
75928;SDS011;64606;44.062;2.986;2023-02-21T08:58:27;9.40;;;5.35;;
75928;SDS011;64606;44.062;2.986;2023-02-21T09:00:53;9.93;;;5.60;;
75928;SDS011;64606;44.062;2.986;2023-02-21T09:03:19;9.25;;;5.47;;
75928;SDS011;64606;44.062;2.986;2023-02-21T09:05:45;12.10;;;6.00;;
75928;SDS011;64606;44.062;2.986;2023-02-21T09:08:12;17.98;;;9.07;;
75928;SDS011;64606;44.062;2.986;2023-02-21T09:10:39;19.90;;;10.02;;
75928;SDS011;64606;44.062;2.986;2023-02-21T09:13:11;12.73;;;6.35;;
75928;SDS011;64606;44.062;2.986;2023-02-21T09:15:37;13.27;;;5.93;;
75928;SDS011;64606;44.062;2.986;2023-02-21T09:18:03;10.68;;;5.68;;
75928;SDS011;64606;44.062;2.986;2023-02-21T09:20:30;15.05;;;6.40;;
75928;SDS011;64606;44.062;2.986;2023-02-21T09:22:56;12.18;;;6.40;;
75928;SDS011;64606;44.062;2.986;2023-02-21T09:25:23;11.57;;;6.05;;
75928;SDS011;64606;44.062;2.986;2023-02-21T09:27:50;12.20;;;6.55;;
75928;SDS011;64606;44.062;2.986;2023-02-21T09:30:18;10.32;;;6.10;;
75928;SDS011;64606;44.062;2.986;2023-02-21T09:32:46;11.48;;;6.53;;
75928;SDS011;64606;44.062;2.986;2023-02-21T09:35:12;8.85;;;5.65;;
75928;SDS011;64606;44.062;2.986;2023-02-21T09:37:39;13.23;;;6.20;;
75928;SDS011;64606;44.062;2.986;2023-02-21T09:40:28;8.90;;;6.13;;
75928;SDS011;64606;44.062;2.986;2023-02-21T09:42:57;13.95;;;6.65;;
75928;SDS011;64606;44.062;2.986;2023-02-21T09:45:29;10.98;;;5.53;;
75928;SDS011;64606;44.062;2.986;2023-02-21T09:47:57;13.88;;;6.65;;
75928;SDS011;64606;44.062;2.986;2023-02-21T09:50:25;13.85;;;6.47;;
75928;SDS011;64606;44.062;2.986;2023-02-21T09:52:55;13.90;;;6.13;;
75928;SDS011;64606;44.062;2.986;2023-02-21T09:55:29;11.05;;;6.50;;
75928;SDS011;64606;44.062;2.986;2023-02-21T09:57:56;17.08;;;8.65;;
75928;SDS011;64606;44.062;2.986;2023-02-21T10:00:32;12.65;;;6.32;;
75928;SDS011;64606;44.062;2.986;2023-02-21T10:10:28;8.93;;;5.25;;
75928;SDS011;64606;44.062;2.986;2023-02-21T10:16:03;11.87;;;5.90;;
75928;SDS011;64606;44.062;2.986;2023-02-21T10:18:47;12.05;;;6.40;;
75928;SDS011;64606;44.062;2.986;2023-02-21T10:24:13;20.40;;;8.87;;
75928;SDS011;64606;44.062;2.986;2023-02-21T10:26:40;14.82;;;7.43;;
75928;SDS011;64606;44.062;2.986;2023-02-21T10:29:22;17.10;;;8.15;;
75928;SDS011;64606;44.062;2.986;2023-02-21T10:31:49;11.98;;;7.05;;
75928;SDS011;64606;44.062;2.986;2023-02-21T10:34:35;13.68;;;6.25;;
75928;SDS011;64606;44.062;2.986;2023-02-21T10:37:36;11.30;;;6.57;;
75928;SDS011;64606;44.062;2.986;2023-02-21T10:39:55;15.93;;;7.20;;
75928;SDS011;64606;44.062;2.986;2023-02-21T10:42:25;12.93;;;6.85;;
75928;SDS011;64606;44.062;2.986;2023-02-21T10:44:53;12.38;;;6.82;;
75928;SDS011;64606;44.062;2.986;2023-02-21T10:48:03;14.57;;;7.55;;
75928;SDS011;64606;44.062;2.986;2023-02-21T10:50:10;12.93;;;6.78;;
75928;SDS011;64606;44.062;2.986;2023-02-21T10:52:37;14.48;;;7.63;;
75928;SDS011;64606;44.062;2.986;2023-02-21T10:55:17;15.70;;;7.68;;
75928;SDS011;64606;44.062;2.986;2023-02-21T10:57:44;13.70;;;7.35;;
75928;SDS011;64606;44.062;2.986;2023-02-21T11:00:34;14.90;;;6.97;;
75928;SDS011;64606;44.062;2.986;2023-02-21T11:03:03;11.88;;;6.88;;
75928;SDS011;64606;44.062;2.986;2023-02-21T11:05:30;17.92;;;7.70;;
75928;SDS011;64606;44.062;2.986;2023-02-21T11:07:58;13.20;;;6.65;;
75928;SDS011;64606;44.062;2.986;2023-02-21T11:10:26;11.90;;;6.78;;
75928;SDS011;64606;44.062;2.986;2023-02-21T11:15:38;15.85;;;7.25;;
75928;SDS011;64606;44.062;2.986;2023-02-21T11:18:23;11.85;;;6.97;;
75928;SDS011;64606;44.062;2.986;2023-02-21T11:20:51;12.57;;;7.10;;
75928;SDS011;64606;44.062;2.986;2023-02-21T11:23:27;18.98;;;7.75;;
75928;SDS011;64606;44.062;2.986;2023-02-21T11:26:05;13.30;;;7.00;;
75928;SDS011;64606;44.062;2.986;2023-02-21T11:28:35;14.55;;;7.65;;
75928;SDS011;64606;44.062;2.986;2023-02-21T11:31:15;12.93;;;7.10;;
75928;SDS011;64606;44.062;2.986;2023-02-21T11:36:38;15.50;;;7.45;;
75928;SDS011;64606;44.062;2.986;2023-02-21T11:39:16;16.52;;;9.05;;
75928;SDS011;64606;44.062;2.986;2023-02-21T11:41:50;16.67;;;8.57;;
75928;SDS011;64606;44.062;2.986;2023-02-21T11:45:01;16.52;;;9.40;;
75928;SDS011;64606;44.062;2.986;2023-02-21T11:52:28;20.98;;;10.93;;
75928;SDS011;64606;44.062;2.986;2023-02-21T11:54:56;15.60;;;8.77;;
75928;SDS011;64606;44.062;2.986;2023-02-21T11:57:33;14.52;;;7.55;;
75928;SDS011;64606;44.062;2.986;2023-02-21T12:03:09;12.63;;;7.65;;
75928;SDS011;64606;44.062;2.986;2023-02-21T12:13:43;15.88;;;8.20;;
75928;SDS011;64606;44.062;2.986;2023-02-21T12:16:18;18.80;;;9.00;;
75928;SDS011;64606;44.062;2.986;2023-02-21T12:19:00;22.23;;;13.43;;
75928;SDS011;64606;44.062;2.986;2023-02-21T12:24:58;20.83;;;9.40;;
75928;SDS011;64606;44.062;2.986;2023-02-21T12:27:08;13.30;;;8.07;;
75928;SDS011;64606;44.062;2.986;2023-02-21T12:50:00;15.75;;;7.13;;
75928;SDS011;64606;44.062;2.986;2023-02-21T12:52:29;14.32;;;7.43;;
75928;SDS011;64606;44.062;2.986;2023-02-21T12:55:03;14.98;;;7.85;;
75928;SDS011;64606;44.062;2.986;2023-02-21T13:00:00;13.07;;;7.47;;
75928;SDS011;64606;44.062;2.986;2023-02-21T13:05:08;17.13;;;7.70;;
75928;SDS011;64606;44.062;2.986;2023-02-21T13:07:40;14.80;;;7.60;;
75928;SDS011;64606;44.062;2.986;2023-02-21T13:10:17;12.50;;;7.18;;
75928;SDS011;64606;44.062;2.986;2023-02-21T13:12:52;14.18;;;7.47;;
75928;SDS011;64606;44.062;2.986;2023-02-21T13:15:22;15.55;;;7.30;;
75928;SDS011;64606;44.062;2.986;2023-02-21T13:18:15;13.40;;;7.10;;
75928;SDS011;64606;44.062;2.986;2023-02-21T13:20:46;13.85;;;7.13;;
75928;SDS011;64606;44.062;2.986;2023-02-21T13:28:52;11.93;;;7.18;;
75928;SDS011;64606;44.062;2.986;2023-02-21T13:31:26;14.68;;;6.95;;
75928;SDS011;64606;44.062;2.986;2023-02-21T13:33:56;12.18;;;6.90;;
75928;SDS011;64606;44.062;2.986;2023-02-21T13:36:26;14.55;;;7.43;;
75928;SDS011;64606;44.062;2.986;2023-02-21T13:39:00;10.68;;;6.63;;
75928;SDS011;64606;44.062;2.986;2023-02-21T13:41:28;12.10;;;7.28;;
75928;SDS011;64606;44.062;2.986;2023-02-21T13:43:55;11.75;;;7.05;;
75928;SDS011;64606;44.062;2.986;2023-02-21T13:46:23;22.90;;;10.02;;
75928;SDS011;64606;44.062;2.986;2023-02-21T13:51:49;12.60;;;7.10;;
75928;SDS011;64606;44.062;2.986;2023-02-21T13:54:23;14.03;;;6.97;;
75928;SDS011;64606;44.062;2.986;2023-02-21T13:56:50;16.98;;;7.60;;
75928;SDS011;64606;44.062;2.986;2023-02-21T14:01:49;11.63;;;7.03;;
75928;SDS011;64606;44.062;2.986;2023-02-21T14:05:00;15.93;;;6.88;;
75928;SDS011;64606;44.062;2.986;2023-02-21T14:07:05;16.40;;;7.22;;
75928;SDS011;64606;44.062;2.986;2023-02-21T14:09:31;11.48;;;6.25;;
75928;SDS011;64606;44.062;2.986;2023-02-21T14:12:00;15.30;;;6.95;;
75928;SDS011;64606;44.062;2.986;2023-02-21T14:14:31;13.18;;;7.20;;
75928;SDS011;64606;44.062;2.986;2023-02-21T14:17:09;11.30;;;6.88;;
75928;SDS011;64606;44.062;2.986;2023-02-21T14:22:10;13.43;;;6.35;;
75928;SDS011;64606;44.062;2.986;2023-02-21T14:24:38;15.55;;;6.32;;
75928;SDS011;64606;44.062;2.986;2023-02-21T14:27:50;11.57;;;6.10;;
75928;SDS011;64606;44.062;2.986;2023-02-21T14:32:46;17.13;;;6.70;;
75928;SDS011;64606;44.062;2.986;2023-02-21T14:38:06;16.88;;;7.15;;
75928;SDS011;64606;44.062;2.986;2023-02-21T14:54:04;11.43;;;5.90;;
75928;SDS011;64606;44.062;2.986;2023-02-21T15:02:01;14.82;;;7.15;;
75928;SDS011;64606;44.062;2.986;2023-02-21T15:07:00;11.27;;;6.82;;
75928;SDS011;64606;44.062;2.986;2023-02-21T15:09:32;11.52;;;6.10;;
75928;SDS011;64606;44.062;2.986;2023-02-21T15:11:58;11.80;;;6.57;;
75928;SDS011;64606;44.062;2.986;2023-02-21T15:14:27;12.25;;;5.90;;
75928;SDS011;64606;44.062;2.986;2023-02-21T15:16:58;12.90;;;5.90;;
75928;SDS011;64606;44.062;2.986;2023-02-21T15:19:29;12.02;;;5.82;;
75928;SDS011;64606;44.062;2.986;2023-02-21T15:22:16;11.77;;;5.40;;
75928;SDS011;64606;44.062;2.986;2023-02-21T15:24:56;10.38;;;5.65;;
75928;SDS011;64606;44.062;2.986;2023-02-21T15:27:22;14.02;;;6.50;;
75928;SDS011;64606;44.062;2.986;2023-02-21T15:30:02;12.82;;;7.03;;
75928;SDS011;64606;44.062;2.986;2023-02-21T15:32:29;11.23;;;6.10;;
75928;SDS011;64606;44.062;2.986;2023-02-21T15:34:55;13.75;;;6.35;;
75928;SDS011;64606;44.062;2.986;2023-02-21T15:37:22;11.55;;;6.25;;
75928;SDS011;64606;44.062;2.986;2023-02-21T15:39:53;14.52;;;6.38;;
75928;SDS011;64606;44.062;2.986;2023-02-21T15:42:20;11.32;;;6.05;;
75928;SDS011;64606;44.062;2.986;2023-02-21T15:44:51;12.73;;;5.85;;
75928;SDS011;64606;44.062;2.986;2023-02-21T15:47:23;14.93;;;6.15;;
75928;SDS011;64606;44.062;2.986;2023-02-21T15:50:10;12.63;;;6.65;;
75928;SDS011;64606;44.062;2.986;2023-02-21T15:52:39;14.32;;;6.80;;
75928;SDS011;64606;44.062;2.986;2023-02-21T15:57:44;13.35;;;6.00;;
75928;SDS011;64606;44.062;2.986;2023-02-21T16:00:22;16.17;;;7.45;;
75928;SDS011;64606;44.062;2.986;2023-02-21T16:02:50;11.23;;;6.50;;
75928;SDS011;64606;44.062;2.986;2023-02-21T16:05:26;11.57;;;6.18;;
75928;SDS011;64606;44.062;2.986;2023-02-21T16:07:52;23.50;;;7.95;;
75928;SDS011;64606;44.062;2.986;2023-02-21T16:10:20;14.85;;;7.63;;
75928;SDS011;64606;44.062;2.986;2023-02-21T16:12:52;15.18;;;7.10;;
75928;SDS011;64606;44.062;2.986;2023-02-21T16:15:23;12.10;;;6.57;;
75928;SDS011;64606;44.062;2.986;2023-02-21T16:17:54;11.27;;;6.20;;
75928;SDS011;64606;44.062;2.986;2023-02-21T16:20:28;12.52;;;6.65;;
75928;SDS011;64606;44.062;2.986;2023-02-21T16:28:21;14.83;;;7.07;;
75928;SDS011;64606;44.062;2.986;2023-02-21T16:30:47;12.55;;;7.15;;
75928;SDS011;64606;44.062;2.986;2023-02-21T16:33:14;13.02;;;7.40;;
75928;SDS011;64606;44.062;2.986;2023-02-21T16:35:40;14.32;;;7.85;;
75928;SDS011;64606;44.062;2.986;2023-02-21T16:38:09;14.35;;;6.82;;
75928;SDS011;64606;44.062;2.986;2023-02-21T16:40:36;13.30;;;6.97;;
75928;SDS011;64606;44.062;2.986;2023-02-21T16:43:03;12.65;;;7.25;;
75928;SDS011;64606;44.062;2.986;2023-02-21T16:45:29;13.02;;;6.50;;
75928;SDS011;64606;44.062;2.986;2023-02-21T16:47:59;12.30;;;8.68;;
75928;SDS011;64606;44.062;2.986;2023-02-21T16:50:28;16.92;;;7.95;;
75928;SDS011;64606;44.062;2.986;2023-02-21T16:52:54;16.35;;;8.90;;
75928;SDS011;64606;44.062;2.986;2023-02-21T16:55:20;18.92;;;10.88;;
75928;SDS011;64606;44.062;2.986;2023-02-21T16:57:47;16.25;;;9.63;;
75928;SDS011;64606;44.062;2.986;2023-02-21T17:00:15;21.00;;;10.77;;
75928;SDS011;64606;44.062;2.986;2023-02-21T17:02:41;17.27;;;8.10;;
75928;SDS011;64606;44.062;2.986;2023-02-21T17:05:07;13.00;;;7.78;;
75928;SDS011;64606;44.062;2.986;2023-02-21T17:07:33;14.35;;;8.40;;
75928;SDS011;64606;44.062;2.986;2023-02-21T17:09:59;13.13;;;7.78;;
75928;SDS011;64606;44.062;2.986;2023-02-21T17:12:25;16.77;;;7.82;;
75928;SDS011;64606;44.062;2.986;2023-02-21T17:14:53;14.80;;;8.02;;
75928;SDS011;64606;44.062;2.986;2023-02-21T17:17:19;16.67;;;7.90;;
75928;SDS011;64606;44.062;2.986;2023-02-21T17:19:45;17.52;;;8.48;;
75928;SDS011;64606;44.062;2.986;2023-02-21T17:22:11;17.77;;;8.15;;
75928;SDS011;64606;44.062;2.986;2023-02-21T17:24:37;21.52;;;9.48;;